createdAt,value
2023-03-30T00:01:15.061Z,10.82
2023-03-30T00:03:45.153Z,10.86
2023-03-30T00:06:21.710Z,10.86
2023-03-30T00:08:53.575Z,10.81
2023-03-30T00:11:23.161Z,10.73
2023-03-30T00:13:51.638Z,10.77
2023-03-30T00:16:19.761Z,10.81
2023-03-30T00:18:47.422Z,10.78
2023-03-30T00:21:18.050Z,10.72
2023-03-30T00:23:47.835Z,10.64
2023-03-30T00:26:16.158Z,10.60
2023-03-30T00:28:43.335Z,10.64
2023-03-30T00:31:11.475Z,10.66
2023-03-30T00:33:46.518Z,10.69
2023-03-30T00:36:16.225Z,10.64
2023-03-30T00:38:44.127Z,10.65
2023-03-30T00:41:11.470Z,10.63
2023-03-30T00:44:47.408Z,10.51
2023-03-30T00:47:16.448Z,10.45
2023-03-30T00:49:44.768Z,10.43
2023-03-30T00:52:12.879Z,10.46
2023-03-30T00:54:40.451Z,10.47
2023-03-30T00:57:08.258Z,10.58
2023-03-30T00:59:35.650Z,10.58
2023-03-30T01:02:02.913Z,10.76
2023-03-30T01:04:30.137Z,10.74
2023-03-30T01:06:58.882Z,10.76
2023-03-30T01:09:26.562Z,10.74
2023-03-30T01:11:53.797Z,10.69
2023-03-30T01:14:21.182Z,10.69
2023-03-30T01:17:19.697Z,10.72
2023-03-30T01:20:39.047Z,10.76
2023-03-30T01:23:35.296Z,10.73
2023-03-30T01:26:49.709Z,10.78
2023-03-30T01:29:46.545Z,10.92
2023-03-30T01:32:29.887Z,10.89
2023-03-30T01:35:33.977Z,10.84
2023-03-30T01:38:36.511Z,10.75
2023-03-30T01:41:34.799Z,10.67
2023-03-30T01:44:32.228Z,10.72
2023-03-30T01:47:41.657Z,10.73
2023-03-30T01:50:35.264Z,10.74
2023-03-30T01:53:35.016Z,10.70
2023-03-30T01:56:22.604Z,10.71
2023-03-30T01:59:08.511Z,10.69
2023-03-30T02:01:39.300Z,10.63
2023-03-30T02:04:09.493Z,10.66
2023-03-30T02:07:11.433Z,10.76
2023-03-30T02:09:41.696Z,10.84
2023-03-30T02:12:11.677Z,10.84
2023-03-30T02:14:41.839Z,10.91
2023-03-30T02:17:22.841Z,10.90
2023-03-30T02:19:50.959Z,10.97
2023-03-30T02:22:20.356Z,10.99
2023-03-30T02:24:51.660Z,10.95
2023-03-30T02:27:19.605Z,10.95
2023-03-30T02:29:49.256Z,11.02
2023-03-30T02:32:37.170Z,11.05
2023-03-30T02:35:43.710Z,11.07
2023-03-30T02:38:47.899Z,11.05
2023-03-30T02:42:16.610Z,11.08
2023-03-30T02:45:42.823Z,11.14
2023-03-30T02:48:36.625Z,11.11
2023-03-30T02:51:43.120Z,11.08
2023-03-30T02:54:55.003Z,11.09
2023-03-30T02:58:09.304Z,11.08
2023-03-30T03:01:05.865Z,11.06
2023-03-30T03:03:49.419Z,11.10
2023-03-30T03:06:20.426Z,11.16
2023-03-30T03:08:56.202Z,11.16
2023-03-30T03:11:27.106Z,11.19
2023-03-30T03:13:55.496Z,11.27
2023-03-30T03:16:24.134Z,11.32
2023-03-30T03:19:13.679Z,11.35
2023-03-30T03:21:41.344Z,11.30
2023-03-30T03:24:09.168Z,11.28
2023-03-30T03:26:56.933Z,11.30
2023-03-30T03:29:24.626Z,11.32
2023-03-30T03:31:52.151Z,11.35
2023-03-30T03:34:22.283Z,11.41
2023-03-30T03:36:59.388Z,11.42
2023-03-30T03:39:28.970Z,11.48
2023-03-30T03:42:06.296Z,11.43
2023-03-30T03:44:37.592Z,11.36
2023-03-30T03:47:05.055Z,11.46
2023-03-30T03:49:32.349Z,11.52
2023-03-30T03:51:59.560Z,11.51
2023-03-30T03:54:26.819Z,11.49
2023-03-30T03:56:54.059Z,11.45
2023-03-30T03:59:28.987Z,11.47
2023-03-30T04:01:56.257Z,11.43
2023-03-30T04:04:23.478Z,11.71
2023-03-30T04:06:51.243Z,11.63
2023-03-30T04:09:19.255Z,11.57
2023-03-30T04:12:06.991Z,11.53
2023-03-30T04:14:59.375Z,11.46
2023-03-30T04:17:47.392Z,11.46
2023-03-30T04:20:40.972Z,11.46
2023-03-30T04:23:21.645Z,11.41
2023-03-30T04:26:13.729Z,11.42
2023-03-30T04:28:57.707Z,11.42
2023-03-30T04:31:46.867Z,11.40
2023-03-30T04:34:21.853Z,11.43
2023-03-30T04:37:24.033Z,11.42
2023-03-30T04:40:17.693Z,11.47
2023-03-30T04:43:05.242Z,11.49
2023-03-30T04:45:54.018Z,11.45
2023-03-30T04:48:48.204Z,11.43
2023-03-30T04:51:44.572Z,11.46
2023-03-30T04:54:32.746Z,11.45
2023-03-30T04:57:21.587Z,11.46
2023-03-30T05:00:27.451Z,11.51
2023-03-30T05:03:13.226Z,11.46
2023-03-30T05:05:57.079Z,11.45
2023-03-30T05:08:36.079Z,11.55
2023-03-30T05:11:23.624Z,11.57
2023-03-30T05:14:17.291Z,11.54
2023-03-30T05:17:04.830Z,11.52
2023-03-30T05:19:53.570Z,11.54
2023-03-30T05:22:53.724Z,11.53
2023-03-30T05:25:46.573Z,11.54
2023-03-30T05:28:49.861Z,11.53
2023-03-30T05:31:24.709Z,11.56
2023-03-30T05:34:08.207Z,11.50
2023-03-30T05:36:54.102Z,11.57
2023-03-30T05:39:40.444Z,11.64
2023-03-30T05:42:27.320Z,11.60
2023-03-30T05:45:23.672Z,11.48
2023-03-30T05:48:02.568Z,11.68
2023-03-30T05:50:42.851Z,11.63
2023-03-30T05:53:19.286Z,11.56
2023-03-30T05:56:07.196Z,11.52
2023-03-30T05:58:54.647Z,11.63
2023-03-30T06:01:41.059Z,11.54
2023-03-30T06:04:08.579Z,11.55
2023-03-30T06:06:37.012Z,11.59
2023-03-30T06:09:05.509Z,11.65
2023-03-30T06:11:34.512Z,11.72
2023-03-30T06:14:10.680Z,11.56
2023-03-30T06:16:38.487Z,11.20
2023-03-30T06:19:07.048Z,11.17
2023-03-30T06:21:34.268Z,11.19
2023-03-30T06:24:24.352Z,11.31
2023-03-30T06:26:52.249Z,11.26
2023-03-30T06:29:20.129Z,11.19
2023-03-30T06:31:47.959Z,11.24
2023-03-30T06:34:37.700Z,11.34
2023-03-30T06:37:08.790Z,11.34
2023-03-30T06:39:37.870Z,11.38
2023-03-30T06:42:06.404Z,11.44
2023-03-30T06:44:47.582Z,11.42
2023-03-30T06:47:16.658Z,11.49
2023-03-30T06:49:43.910Z,11.55
2023-03-30T06:52:38.008Z,11.46
2023-03-30T06:55:06.251Z,11.45
2023-03-30T06:57:33.807Z,11.52
2023-03-30T07:00:06.315Z,11.46
2023-03-30T07:02:56.765Z,11.37
2023-03-30T07:05:32.736Z,11.26
2023-03-30T07:08:15.675Z,11.35
2023-03-30T07:10:49.791Z,11.42
2023-03-30T07:13:17.513Z,11.46
2023-03-30T07:15:47.859Z,11.47
2023-03-30T07:18:15.377Z,11.47
2023-03-30T07:20:45.215Z,11.44
2023-03-30T07:23:17.176Z,11.48
2023-03-30T07:25:46.962Z,11.56
2023-03-30T07:28:21.565Z,11.54
2023-03-30T07:30:48.820Z,11.55
2023-03-30T07:33:17.245Z,11.53
2023-03-30T07:35:49.927Z,11.54
2023-03-30T07:38:22.211Z,11.59
2023-03-30T07:40:52.927Z,11.63
2023-03-30T07:43:22.112Z,11.70
2023-03-30T07:45:49.999Z,11.76
2023-03-30T07:48:24.351Z,11.77
2023-03-30T07:51:20.242Z,11.64
2023-03-30T07:53:55.482Z,11.52
2023-03-30T07:56:29.619Z,11.68
2023-03-30T07:59:01.730Z,11.79
2023-03-30T08:01:34.479Z,11.91
2023-03-30T08:04:14.879Z,11.95
2023-03-30T08:06:42.994Z,11.91
2023-03-30T08:09:28.764Z,12.04
2023-03-30T08:11:55.899Z,12.14
2023-03-30T08:14:27.270Z,12.21
2023-03-30T08:16:56.409Z,12.02
2023-03-30T08:19:25.563Z,11.76
2023-03-30T08:21:52.674Z,11.88
2023-03-30T08:24:19.914Z,12.04
2023-03-30T08:26:47.142Z,12.35
2023-03-30T08:29:14.545Z,12.55
2023-03-30T08:31:42.533Z,12.75
2023-03-30T08:34:10.114Z,12.86
2023-03-30T08:36:37.343Z,12.89
2023-03-30T08:39:05.094Z,13.06
2023-03-30T08:42:29.086Z,13.05
2023-03-30T08:45:03.187Z,12.81
2023-03-30T08:47:39.801Z,12.40
2023-03-30T08:50:23.359Z,12.80
2023-03-30T08:52:52.453Z,13.20
2023-03-30T08:55:38.000Z,12.77
2023-03-30T08:58:48.977Z,13.30
2023-03-30T09:02:13.639Z,14.01
2023-03-30T09:04:57.769Z,13.75
2023-03-30T09:07:59.377Z,14.08
2023-03-30T09:10:31.425Z,12.73
2023-03-30T09:13:02.503Z,13.10
2023-03-30T09:15:40.574Z,13.38
2023-03-30T09:18:31.668Z,13.53
2023-03-30T09:21:03.609Z,13.81
2023-03-30T09:23:33.018Z,13.46
2023-03-30T09:26:51.507Z,13.93
2023-03-30T09:29:32.630Z,14.64
2023-03-30T09:32:46.009Z,15.06
2023-03-30T09:35:21.558Z,15.09
2023-03-30T09:37:48.762Z,15.15
2023-03-30T09:41:07.527Z,14.92
2023-03-30T09:43:45.961Z,13.96
2023-03-30T09:46:15.748Z,13.20
2023-03-30T09:48:49.008Z,13.58
2023-03-30T09:51:30.688Z,14.01
2023-03-30T09:54:06.541Z,14.19
2023-03-30T09:56:46.897Z,14.30
2023-03-30T09:59:37.752Z,13.45
2023-03-30T10:02:23.012Z,13.41
2023-03-30T10:04:53.648Z,13.82
2023-03-30T10:07:33.645Z,13.76
2023-03-30T10:10:16.284Z,14.10
2023-03-30T10:12:44.872Z,13.90
2023-03-30T10:15:18.817Z,13.02
2023-03-30T10:17:48.836Z,12.76
2023-03-30T10:20:30.760Z,13.20
2023-03-30T10:23:17.012Z,13.82
2023-03-30T10:25:50.222Z,14.54
2023-03-30T10:28:27.020Z,15.07
2023-03-30T10:31:03.746Z,15.02
2023-03-30T10:33:38.596Z,14.56
2023-03-30T10:36:08.264Z,14.03
2023-03-30T10:38:36.253Z,13.70
2023-03-30T10:41:16.204Z,14.38
2023-03-30T10:43:44.793Z,14.56
2023-03-30T10:46:20.402Z,15.63
2023-03-30T10:49:06.358Z,15.11
2023-03-30T10:51:48.999Z,14.35
2023-03-30T10:54:36.580Z,14.70
2023-03-30T10:57:18.626Z,15.72
2023-03-30T11:00:28.156Z,15.66
2023-03-30T11:03:17.880Z,15.11
2023-03-30T11:05:52.701Z,15.64
2023-03-30T11:08:45.227Z,15.18
2023-03-30T11:11:42.585Z,16.09
2023-03-30T11:14:25.936Z,15.08
2023-03-30T11:17:13.023Z,14.67
2023-03-30T11:19:52.969Z,15.26
2023-03-30T11:22:45.748Z,15.92
2023-03-30T11:25:30.749Z,15.71
2023-03-30T11:28:18.999Z,16.39
2023-03-30T11:30:46.314Z,16.90
2023-03-30T11:33:36.920Z,16.67
2023-03-30T11:36:31.156Z,16.42
2023-03-30T11:39:07.217Z,15.04
2023-03-30T11:41:42.024Z,14.48
2023-03-30T11:44:11.947Z,14.29
2023-03-30T11:47:35.453Z,14.92
2023-03-30T11:50:36.205Z,15.25
2023-03-30T11:53:47.557Z,15.14
2023-03-30T11:56:47.154Z,15.40
2023-03-30T11:59:36.419Z,15.16
2023-03-30T12:03:01.711Z,14.70
2023-03-30T12:05:38.588Z,14.94
2023-03-30T12:08:43.875Z,14.63
2023-03-30T12:11:47.568Z,14.91
2023-03-30T12:15:01.987Z,15.09
2023-03-30T12:18:32.563Z,15.30
2023-03-30T12:21:36.154Z,15.04
2023-03-30T12:24:36.298Z,14.25
2023-03-30T12:27:06.109Z,14.76
2023-03-30T12:30:01.943Z,15.22
2023-03-30T12:32:34.834Z,15.28
2023-03-30T12:35:02.782Z,15.55
2023-03-30T12:37:37.984Z,15.18
2023-03-30T12:40:22.580Z,15.52
2023-03-30T12:43:42.380Z,14.63
2023-03-30T12:46:30.342Z,14.99
2023-03-30T12:49:31.350Z,15.42
2023-03-30T12:53:19.122Z,15.54
2023-03-30T12:56:15.241Z,15.21
2023-03-30T12:59:12.018Z,15.69
2023-03-30T13:02:07.598Z,15.65
2023-03-30T13:04:39.587Z,15.85
2023-03-30T13:07:24.886Z,16.02
2023-03-30T13:10:06.207Z,16.24
2023-03-30T13:12:41.910Z,16.43
2023-03-30T13:15:31.834Z,16.89
2023-03-30T13:18:24.313Z,16.92
2023-03-30T13:20:54.172Z,16.93
2023-03-30T13:23:21.151Z,17.45
2023-03-30T13:26:31.994Z,17.26
2023-03-30T13:29:11.723Z,17.26
2023-03-30T13:32:21.310Z,16.51
2023-03-30T13:35:32.946Z,16.96
2023-03-30T13:38:57.089Z,16.78
2023-03-30T13:41:48.425Z,16.44
2023-03-30T13:45:05.881Z,17.56
2023-03-30T13:48:15.847Z,17.74
2023-03-30T13:50:55.261Z,17.54
2023-03-30T13:53:29.055Z,17.36
2023-03-30T13:55:56.633Z,17.57
2023-03-30T13:58:30.882Z,17.34
2023-03-30T14:01:12.043Z,17.88
2023-03-30T14:03:49.511Z,17.89
2023-03-30T14:06:22.596Z,17.81
2023-03-30T14:09:05.575Z,17.99
2023-03-30T14:11:47.365Z,17.93
2023-03-30T14:14:28.021Z,18.04
2023-03-30T14:17:04.259Z,18.11
2023-03-30T14:19:38.705Z,18.05
2023-03-30T14:22:22.056Z,18.79
2023-03-30T14:25:04.698Z,18.59
2023-03-30T14:27:39.218Z,17.71
2023-03-30T14:30:22.052Z,17.20
2023-03-30T14:33:13.241Z,17.05
2023-03-30T14:35:50.237Z,17.38
2023-03-30T14:38:38.336Z,17.06
2023-03-30T14:41:28.057Z,17.21
2023-03-30T14:44:07.145Z,16.85
2023-03-30T14:46:51.510Z,17.05
2023-03-30T14:49:29.890Z,17.16
2023-03-30T14:52:15.364Z,17.29
2023-03-30T14:54:48.789Z,16.92
2023-03-30T14:57:26.606Z,16.57
2023-03-30T15:00:02.310Z,16.65
2023-03-30T15:02:33.167Z,16.59
2023-03-30T15:05:00.547Z,16.55
2023-03-30T15:07:32.465Z,16.68
2023-03-30T15:10:00.634Z,16.38
2023-03-30T15:12:36.560Z,16.13
2023-03-30T15:15:08.061Z,16.25
2023-03-30T15:17:37.824Z,16.10
2023-03-30T15:20:07.229Z,16.28
2023-03-30T15:22:51.648Z,16.02
2023-03-30T15:25:24.458Z,16.17
2023-03-30T15:28:19.101Z,16.38
2023-03-30T15:30:53.070Z,17.55
2023-03-30T15:33:37.179Z,17.36
2023-03-30T15:36:23.606Z,17.54
2023-03-30T15:38:58.678Z,17.37
2023-03-30T15:42:01.696Z,17.23
2023-03-30T15:44:29.241Z,17.30
2023-03-30T15:46:58.684Z,17.50
2023-03-30T15:49:40.365Z,16.50
2023-03-30T15:52:36.404Z,16.12
2023-03-30T15:55:19.254Z,16.36
2023-03-30T15:57:51.653Z,16.14
2023-03-30T16:00:24.091Z,15.87
2023-03-30T16:02:58.790Z,15.88
2023-03-30T16:05:34.425Z,15.84
2023-03-30T16:08:01.659Z,15.69
2023-03-30T16:10:32.657Z,15.52
2023-03-30T16:13:01.397Z,15.41
2023-03-30T16:15:33.330Z,15.52
2023-03-30T16:18:00.723Z,15.52
2023-03-30T16:20:32.718Z,15.54
2023-03-30T16:23:00.202Z,15.29
2023-03-30T16:27:58.700Z,15.29
2023-03-30T16:30:37.421Z,15.38
2023-03-30T16:33:05.247Z,15.37
2023-03-30T16:35:32.534Z,15.37
2023-03-30T16:37:59.834Z,15.39
2023-03-30T16:40:40.888Z,15.27
2023-03-30T16:43:10.276Z,15.21
2023-03-30T16:45:38.363Z,15.15
2023-03-30T16:48:06.330Z,15.09
2023-03-30T16:50:46.616Z,15.06
2023-03-30T16:53:13.872Z,15.02
2023-03-30T16:55:41.484Z,15.13
2023-03-30T16:58:13.838Z,15.06
2023-03-30T17:00:53.657Z,14.90
2023-03-30T17:03:21.259Z,14.88
2023-03-30T17:05:49.237Z,14.75
2023-03-30T17:08:26.015Z,14.67
2023-03-30T17:11:01.329Z,14.79
2023-03-30T17:13:29.666Z,14.97
2023-03-30T17:15:59.649Z,15.02
2023-03-30T17:18:28.080Z,15.01
2023-03-30T17:21:01.524Z,14.86
2023-03-30T17:23:34.267Z,14.79
2023-03-30T17:26:03.379Z,14.69
2023-03-30T17:28:38.240Z,14.58
2023-03-30T17:31:16.410Z,14.49
2023-03-30T17:33:44.858Z,14.37
2023-03-30T17:36:24.796Z,14.45
2023-03-30T17:38:52.773Z,14.48
2023-03-30T17:41:20.890Z,14.65
2023-03-30T17:43:48.717Z,14.54
2023-03-30T17:46:19.436Z,14.51
2023-03-30T17:48:47.456Z,14.48
2023-03-30T17:51:14.623Z,14.30
2023-03-30T17:53:42.669Z,14.18
2023-03-30T17:56:13.328Z,14.05
2023-03-30T17:58:40.780Z,13.98
2023-03-30T18:01:11.208Z,13.96
2023-03-30T18:03:39.612Z,13.77
2023-03-30T18:06:07.353Z,13.78
2023-03-30T18:08:35.945Z,13.67
2023-03-30T18:11:04.379Z,13.65
2023-03-30T18:13:32.244Z,13.59
2023-03-30T18:16:00.662Z,13.42
2023-03-30T18:18:30.449Z,13.36
2023-03-30T18:21:03.144Z,13.22
2023-03-30T18:23:33.884Z,13.06
2023-03-30T18:26:01.889Z,12.91
2023-03-30T18:28:31.416Z,12.79
2023-03-30T18:31:00.594Z,12.79
2023-03-30T18:33:28.662Z,12.82
2023-03-30T18:36:04.660Z,12.76
2023-03-30T18:38:33.216Z,12.67
2023-03-30T18:41:01.457Z,12.60
2023-03-30T18:43:28.910Z,12.58
2023-03-30T18:46:01.470Z,12.51
2023-03-30T18:48:29.929Z,12.44
2023-03-30T18:50:58.129Z,12.37
2023-03-30T18:53:28.763Z,12.31
2023-03-30T18:56:00.407Z,12.20
2023-03-30T18:58:41.656Z,12.14
2023-03-30T19:01:09.891Z,12.04
2023-03-30T19:03:37.225Z,12.01
2023-03-30T19:06:04.751Z,12.03
2023-03-30T19:08:32.012Z,11.98
2023-03-30T19:10:59.124Z,11.92
2023-03-30T19:13:27.127Z,11.90
2023-03-30T19:15:54.986Z,11.88
2023-03-30T19:18:22.334Z,11.89
2023-03-30T19:20:51.264Z,11.89
2023-03-30T19:23:21.848Z,11.84
2023-03-30T19:25:49.292Z,11.95
2023-03-30T19:28:17.277Z,11.92
2023-03-30T19:30:44.794Z,11.93
2023-03-30T19:33:16.368Z,11.85
2023-03-30T19:35:46.431Z,11.89
2023-03-30T19:38:15.333Z,11.83
2023-03-30T19:40:43.264Z,11.83
2023-03-30T19:43:11.339Z,11.80
2023-03-30T19:45:38.737Z,11.73
2023-03-30T19:48:06.144Z,11.60
2023-03-30T19:50:33.576Z,11.59
2023-03-30T19:53:00.779Z,11.54
2023-03-30T19:55:28.484Z,11.48
2023-03-30T19:57:55.890Z,11.38
2023-03-30T20:00:23.770Z,11.28
2023-03-30T20:02:54.829Z,11.23
2023-03-30T20:05:24.518Z,11.22
2023-03-30T20:07:52.180Z,11.28
2023-03-30T20:10:25.782Z,11.31
2023-03-30T20:12:53.702Z,11.29
2023-03-30T20:15:26.053Z,11.29
2023-03-30T20:17:56.638Z,11.35
2023-03-30T20:20:25.435Z,11.38
2023-03-30T20:22:55.990Z,11.36
2023-03-30T20:25:23.877Z,11.38
2023-03-30T20:27:51.037Z,11.43
2023-03-30T20:30:19.328Z,11.43
2023-03-30T20:32:53.187Z,11.45
2023-03-30T20:35:31.897Z,11.43
2023-03-30T20:37:59.557Z,11.35
2023-03-30T20:40:27.354Z,11.24
2023-03-30T20:43:01.917Z,11.22
2023-03-30T20:45:31.040Z,11.21
2023-03-30T20:47:59.663Z,11.20
2023-03-30T20:50:27.181Z,11.10
2023-03-30T20:52:54.358Z,10.92
2023-03-30T20:55:21.500Z,10.77
2023-03-30T20:57:48.674Z,10.66
2023-03-30T21:00:16.601Z,10.55
2023-03-30T21:02:43.970Z,10.56
2023-03-30T21:05:11.134Z,10.54
2023-03-30T21:07:42.200Z,10.51
2023-03-30T21:10:09.871Z,10.36
2023-03-30T21:12:37.112Z,10.29
2023-03-30T21:15:04.842Z,10.32
2023-03-30T21:17:32.124Z,10.33
2023-03-30T21:19:59.254Z,10.36
2023-03-30T21:22:26.556Z,10.28
2023-03-30T21:24:53.696Z,10.19
2023-03-30T21:27:21.261Z,10.19
2023-03-30T21:29:48.484Z,10.16
2023-03-30T21:32:15.937Z,10.10
2023-03-30T21:34:43.059Z,10.05
2023-03-30T21:37:10.312Z,10.00
2023-03-30T21:39:37.682Z,10.08
2023-03-30T21:42:05.281Z,10.06
2023-03-30T21:44:36.620Z,10.04
2023-03-30T21:47:03.865Z,10.05
2023-03-30T21:49:31.109Z,10.02
2023-03-30T21:51:58.216Z,10.06
2023-03-30T21:54:25.364Z,10.02
2023-03-30T21:56:52.511Z,9.98
2023-03-30T21:59:19.636Z,10.04
2023-03-30T22:01:46.786Z,10.06
2023-03-30T22:04:15.409Z,10.09
2023-03-30T22:06:43.353Z,10.10
2023-03-30T22:09:10.508Z,10.08
2023-03-30T22:11:37.659Z,10.06
2023-03-30T22:14:04.792Z,10.03
2023-03-30T22:16:33.163Z,10.15
2023-03-30T22:19:01.297Z,10.29
2023-03-30T22:21:34.082Z,10.41
2023-03-30T22:24:06.248Z,10.53
2023-03-30T22:26:35.502Z,10.61
2023-03-30T22:29:03.460Z,10.63
2023-03-30T22:31:30.772Z,10.67
2023-03-30T22:33:58.086Z,10.68
2023-03-30T22:36:30.805Z,10.80
2023-03-30T22:39:00.959Z,10.78
2023-03-30T22:41:28.849Z,10.80
2023-03-30T22:43:58.415Z,10.83
2023-03-30T22:46:27.987Z,10.90
2023-03-30T22:48:56.076Z,10.91
2023-03-30T22:51:28.090Z,10.98
2023-03-30T22:54:00.219Z,11.07
2023-03-30T22:56:29.685Z,11.07
2023-03-30T22:58:59.430Z,11.11
2023-03-30T23:01:28.849Z,11.16
2023-03-30T23:03:59.615Z,11.15
2023-03-30T23:06:27.414Z,11.15
2023-03-30T23:08:54.684Z,11.21
2023-03-30T23:11:21.895Z,11.17
2023-03-30T23:13:49.998Z,11.15
2023-03-30T23:16:17.423Z,11.15
2023-03-30T23:18:44.665Z,11.13
2023-03-30T23:21:14.012Z,11.14
2023-03-30T23:23:41.572Z,11.10
2023-03-30T23:26:11.302Z,11.15
2023-03-30T23:28:42.305Z,11.17
2023-03-30T23:31:13.122Z,11.33
2023-03-30T23:33:42.525Z,11.28
2023-03-30T23:36:16.676Z,11.26
2023-03-30T23:38:44.342Z,11.29
2023-03-30T23:41:15.770Z,11.34
2023-03-30T23:43:43.838Z,11.33
2023-03-30T23:46:11.471Z,11.27
2023-03-30T23:48:39.740Z,11.30
2023-03-30T23:51:07.869Z,11.30
2023-03-30T23:53:35.228Z,11.29
2023-03-30T23:56:06.281Z,11.31
2023-03-30T23:58:33.976Z,11.29
